Time;durP1;ratioP1;P1;durP2;ratioP2;P2;SDS_P1;SDS_P2;PMS_P1;PMS_P2;Temp;Humidity;BMP_temperature;BMP_pressure;BME280_temperature;BME280_humidity;BME280_pressure;Samples;Min_cycle;Max_cycle;Signal;HPM_P1;HPM_P2
2022/05/22 00:01:12;;;;;;;20.02;8.93;;;;;;;11.42;100.00;101964.00;5097636;28;20031;-68
2022/05/22 00:03:38;;;;;;;19.52;8.20;;;;;;;11.34;100.00;101949.69;5098538;28;20037;-69
2022/05/22 00:06:03;;;;;;;15.65;7.80;;;;;;;11.26;100.00;101945.94;5093577;28;20081;-68
2022/05/22 00:08:28;;;;;;;21.67;8.63;;;;;;;11.20;100.00;101936.06;5090579;28;20030;-68
2022/05/22 00:10:54;;;;;;;18.05;8.25;;;;;;;11.17;100.00;101924.56;5092558;28;20480;-68
2022/05/22 00:13:19;;;;;;;19.35;7.03;;;;;;;11.20;100.00;101922.03;5106980;28;20027;-68
2022/05/22 00:18:28;;;;;;;17.48;8.07;;;;;;;11.14;100.00;101920.97;5080484;28;20097;-68
2022/05/22 00:20:53;;;;;;;21.20;7.97;;;;;;;11.17;100.00;101929.84;5096962;28;20028;-68
2022/05/22 00:23:19;;;;;;;18.58;7.65;;;;;;;11.08;100.00;101935.69;5099570;28;20098;-68
2022/05/22 00:25:44;;;;;;;14.43;7.18;;;;;;;11.05;100.00;101940.88;5102086;28;20080;-68
2022/05/22 00:28:09;;;;;;;18.00;7.00;;;;;;;10.96;100.00;101931.81;5099551;28;20489;-68
2022/05/22 00:30:35;;;;;;;21.63;7.88;;;;;;;10.95;100.00;101923.88;5098396;28;20027;-68
2022/05/22 00:33:02;;;;;;;18.52;7.63;;;;;;;10.97;100.00;101932.72;5102632;28;20042;-68
2022/05/22 00:35:27;;;;;;;12.00;7.15;;;;;;;10.92;100.00;101926.38;5092598;28;20024;-68
2022/05/22 00:37:53;;;;;;;21.35;8.02;;;;;;;10.91;100.00;101943.06;5100256;28;20444;-69
2022/05/22 00:40:18;;;;;;;21.60;6.85;;;;;;;10.87;100.00;101936.78;5091853;28;20479;-68
2022/05/22 00:42:46;;;;;;;19.92;7.28;;;;;;;10.77;100.00;101934.69;5091843;28;20115;-68
2022/05/22 00:45:12;;;;;;;18.55;7.75;;;;;;;10.81;100.00;101931.31;5090562;28;20157;-67
2022/05/22 00:47:37;;;;;;;15.00;6.68;;;;;;;10.84;100.00;101927.88;5092103;28;20470;-67
2022/05/22 00:50:04;;;;;;;20.33;7.85;;;;;;;10.85;100.00;101938.50;5095640;28;20038;-69
2022/05/22 00:52:49;;;;;;;18.27;6.95;;;;;;;10.80;100.00;101919.88;5089303;28;20035;-69
2022/05/22 00:55:20;;;;;;;11.38;7.13;;;;;;;10.75;100.00;101910.94;5091415;28;20035;-69
2022/05/22 00:57:55;;;;;;;15.32;7.45;;;;;;;10.71;100.00;101911.69;5087891;28;20058;-69
2022/05/22 01:00:26;;;;;;;16.35;7.25;;;;;;;10.80;100.00;101919.00;5093790;28;20024;-69
2022/05/22 01:05:40;;;;;;;17.77;7.43;;;;;;;10.79;100.00;101915.47;5091919;28;20079;-69
2022/05/22 01:08:06;;;;;;;20.15;8.27;;;;;;;10.88;100.00;101924.50;5093315;28;20048;-69
2022/05/22 01:10:39;;;;;;;22.33;8.05;;;;;;;10.82;100.00;101926.94;5088899;28;20115;-69
2022/05/22 01:13:05;;;;;;;;;;;;;;;10.83;100.00;101928.75;5089626;28;20024;-68
2022/05/22 01:15:30;;;;;;;21.45;7.60;;;;;;;10.79;100.00;101925.09;5094407;28;19919;-68
2022/05/22 01:17:56;;;;;;;19.95;7.60;;;;;;;10.73;100.00;101925.81;5101211;28;20106;-68
2022/05/22 01:20:21;;;;;;;22.92;9.38;;;;;;;10.68;100.00;101927.38;5093256;28;20064;-68
2022/05/22 01:22:46;;;;;;;21.70;9.07;;;;;;;10.60;100.00;101928.88;5097715;28;20051;-68
2022/05/22 01:25:11;;;;;;;13.30;7.93;;;;;;;10.58;100.00;101922.63;5096550;28;20020;-70
2022/05/22 01:27:39;;;;;;;17.58;8.23;;;;;;;10.53;100.00;101911.09;5109328;28;20027;-69
2022/05/22 01:30:04;;;;;;;15.18;8.18;;;;;;;10.63;100.00;101911.44;5098240;28;20407;-69
2022/05/22 01:32:33;;;;;;;18.35;8.77;;;;;;;10.57;100.00;101910.34;5102878;28;20035;-68
2022/05/22 01:34:58;;;;;;;14.32;7.28;;;;;;;10.52;100.00;101902.28;5104048;28;20020;-69
2022/05/22 01:37:24;;;;;;;13.68;7.53;;;;;;;10.49;100.00;101896.03;5095170;28;20047;-68
2022/05/22 01:39:51;;;;;;;15.88;7.50;;;;;;;10.42;100.00;101901.06;5102135;28;20476;-69
2022/05/22 01:42:16;;;;;;;14.20;7.82;;;;;;;10.40;100.00;101888.69;5108914;28;20039;-68
2022/05/22 01:44:41;;;;;;;14.15;7.47;;;;;;;10.39;100.00;101879.94;5101085;28;20149;-68
2022/05/22 01:47:07;;;;;;;18.02;8.07;;;;;;;10.36;100.00;101890.31;5095504;28;20047;-68
2022/05/22 01:49:32;;;;;;;18.08;8.38;;;;;;;10.36;100.00;101879.81;5098980;28;20043;-68
2022/05/22 01:51:57;;;;;;;15.60;7.80;;;;;;;10.36;100.00;101873.66;5095478;28;20467;-68
2022/05/22 01:54:23;;;;;;;19.80;7.82;;;;;;;10.33;100.00;101873.53;5101466;28;20028;-68
2022/05/22 01:56:48;;;;;;;17.55;8.20;;;;;;;10.33;100.00;101871.78;5104964;28;20364;-68
2022/05/22 01:59:13;;;;;;;23.83;8.95;;;;;;;10.43;100.00;101873.94;5102307;28;20024;-68
2022/05/22 02:01:38;;;;;;;17.52;8.25;;;;;;;10.56;100.00;101869.06;5098563;28;20060;-68
2022/05/22 02:04:05;;;;;;;16.83;8.50;;;;;;;10.45;100.00;101869.59;5103954;28;20032;-68
2022/05/22 02:06:31;;;;;;;19.83;8.15;;;;;;;10.39;100.00;101863.22;5105117;28;20042;-68
2022/05/22 02:08:56;;;;;;;12.15;7.45;;;;;;;10.34;100.00;101860.41;5102784;28;20024;-68
2022/05/22 02:11:21;;;;;;;12.90;7.53;;;;;;;10.30;100.00;101863.78;5093657;28;20464;-68
2022/05/22 02:13:48;;;;;;;18.58;7.65;;;;;;;10.28;100.00;101861.13;5102092;28;20103;-68
2022/05/22 02:16:14;;;;;;;16.77;7.53;;;;;;;10.27;100.00;101868.97;5101835;28;20059;-68
2022/05/22 02:18:40;;;;;;;15.82;8.00;;;;;;;10.24;100.00;101859.22;5095358;28;20049;-69
2022/05/22 02:21:06;;;;;;;16.77;7.28;;;;;;;10.19;100.00;101865.16;5094478;28;20024;-69
2022/05/22 02:23:34;;;;;;;19.02;7.70;;;;;;;10.22;100.00;101857.38;5105129;28;20058;-68
2022/05/22 02:25:59;;;;;;;16.70;7.25;;;;;;;10.15;100.00;101843.13;5100160;28;20016;-68
2022/05/22 02:28:27;;;;;;;14.98;6.93;;;;;;;10.11;100.00;101844.72;5100155;28;20361;-69
2022/05/22 02:30:56;;;;;;;23.55;8.00;;;;;;;10.21;100.00;101845.94;5091126;28;20043;-68
2022/05/22 02:33:21;;;;;;;17.23;8.38;;;;;;;10.18;100.00;101837.94;5091757;28;20023;-68
2022/05/22 02:35:47;;;;;;;15.43;7.70;;;;;;;10.21;100.00;101837.16;5101365;28;20028;-68
2022/05/22 02:38:14;;;;;;;17.50;7.60;;;;;;;10.20;100.00;101840.63;5102605;28;20042;-68
2022/05/22 02:40:40;;;;;;;16.52;7.40;;;;;;;10.15;100.00;101843.13;5107827;28;20040;-68
2022/05/22 02:43:06;;;;;;;13.60;6.72;;;;;;;10.11;100.00;101842.09;5094673;28;20502;-68
2022/05/22 02:45:34;;;;;;;16.27;7.45;;;;;;;10.07;100.00;101834.97;5095609;28;20036;-68
2022/05/22 02:47:59;;;;;;;12.75;8.30;;;;;;;10.09;100.00;101835.91;5098510;28;20032;-68
2022/05/22 02:50:27;;;;;;;16.55;8.02;;;;;;;10.06;100.00;101830.53;5098564;28;20089;-68
2022/05/22 02:52:53;;;;;;;16.38;7.63;;;;;;;10.06;100.00;101829.66;5093624;28;20048;-68
2022/05/22 02:55:19;;;;;;;14.68;7.10;;;;;;;10.02;100.00;101836.53;5100245;28;20108;-68
2022/05/22 02:57:44;;;;;;;17.00;7.30;;;;;;;10.02;100.00;101841.78;5104864;28;20031;-68
2022/05/22 03:00:17;;;;;;;14.25;7.20;;;;;;;10.01;100.00;101845.28;5094407;28;20028;-68
2022/05/22 03:02:42;;;;;;;19.02;7.32;;;;;;;9.94;100.00;101844.16;5096895;28;20081;-69
2022/05/22 03:05:08;;;;;;;12.40;7.63;;;;;;;9.91;100.00;101832.63;5097010;28;20442;-68
2022/05/22 03:07:37;;;;;;;12.77;6.72;;;;;;;9.91;100.00;101832.63;5094185;28;20063;-68
2022/05/22 03:10:07;;;;;;;14.20;7.47;;;;;;;9.89;100.00;101823.78;5104419;28;20023;-67
2022/05/22 03:12:33;;;;;;;16.48;7.22;;;;;;;9.86;100.00;101826.31;5093577;28;20069;-68
2022/05/22 03:14:59;;;;;;;13.43;7.03;;;;;;;9.87;100.00;101823.72;5109435;28;20035;-67
2022/05/22 03:17:25;;;;;;;19.08;7.97;;;;;;;9.82;100.00;101821.78;5104610;28;20035;-67
2022/05/22 03:19:52;;;;;;;16.33;7.35;;;;;;;9.94;100.00;101822.22;5108351;28;20409;-68
2022/05/22 03:22:17;;;;;;;16.25;7.15;;;;;;;9.93;100.00;101825.72;5095448;28;20436;-68
2022/05/22 03:24:43;;;;;;;15.05;6.57;;;;;;;9.87;100.00;101817.59;5095369;28;20048;-69
2022/05/22 03:27:12;;;;;;;12.80;7.38;;;;;;;9.86;100.00;101821.06;5111823;28;20436;-68
2022/05/22 03:29:39;;;;;;;16.33;7.18;;;;;;;9.79;100.00;101818.22;5101549;28;20064;-68
2022/05/22 03:32:05;;;;;;;17.20;6.63;;;;;;;9.71;100.00;101805.63;5098359;28;20032;-68
2022/05/22 03:34:31;;;;;;;18.40;7.07;;;;;;;9.76;100.00;101804.06;5089588;28;20032;-68
2022/05/22 03:36:57;;;;;;;13.93;6.80;;;;;;;9.83;100.00;101806.06;5091459;28;20058;-68
2022/05/22 03:39:22;;;;;;;12.77;6.35;;;;;;;9.90;100.00;101801.91;5093812;28;20028;-67
2022/05/22 03:41:48;;;;;;;14.20;6.72;;;;;;;9.86;100.00;101802.66;5093049;28;20028;-67
2022/05/22 03:44:14;;;;;;;13.38;7.00;;;;;;;9.85;100.00;101800.84;5085685;28;20028;-67
2022/05/22 03:46:39;;;;;;;14.35;6.82;;;;;;;9.84;100.00;101806.97;5099852;28;20058;-67
2022/05/22 03:49:05;;;;;;;21.80;7.80;;;;;;;9.82;100.00;101791.16;5097318;28;20562;-68
2022/05/22 03:51:31;;;;;;;21.83;6.97;;;;;;;9.81;100.00;101788.44;5100219;28;20391;-67
2022/05/22 03:53:57;;;;;;;14.98;6.78;;;;;;;9.81;100.00;101789.38;5094142;28;20114;-68
2022/05/22 03:56:23;;;;;;;16.10;6.80;;;;;;;9.84;100.00;101788.59;5100835;28;20048;-67
2022/05/22 03:58:48;;;;;;;18.90;7.72;;;;;;;9.87;100.00;101783.41;5093416;28;20529;-68
2022/05/22 04:01:14;;;;;;;14.73;7.43;;;;;;;10.00;100.00;101788.25;5093194;28;20136;-67
2022/05/22 04:03:39;;;;;;;21.23;8.00;;;;;;;10.10;100.00;101782.44;5091628;28;20068;-67
2022/05/22 04:06:09;;;;;;;17.58;7.20;;;;;;;10.12;100.00;101780.78;5105874;28;20124;-68
2022/05/22 04:08:34;;;;;;;21.85;8.13;;;;;;;10.32;100.00;101785.78;5106889;28;20031;-68
2022/05/22 04:11:19;;;;;;;20.83;7.80;;;;;;;10.28;100.00;101781.28;5089638;28;20028;-68
2022/05/22 04:13:45;;;;;;;16.98;7.82;;;;;;;10.32;100.00;101777.91;5119334;27;20054;-68
2022/05/22 04:16:10;;;;;;;15.68;7.28;;;;;;;10.35;100.00;101769.25;5099468;28;20467;-68
2022/05/22 04:18:36;;;;;;;17.08;8.70;;;;;;;10.36;100.00;101779.81;5094032;28;20479;-68
2022/05/22 04:21:02;;;;;;;14.88;7.72;;;;;;;10.37;100.00;101778.09;5100513;28;20050;-67
2022/05/22 04:26:28;;;;;;;24.83;9.10;;;;;;;10.52;100.00;101780.34;5079404;28;20167;-68
2022/05/22 04:28:53;;;;;;;17.20;8.32;;;;;;;10.61;100.00;101781.50;5095762;28;20114;-69
2022/05/22 04:31:19;;;;;;;22.58;8.00;;;;;;;10.66;100.00;101784.28;5091559;28;20158;-68
2022/05/22 04:33:44;;;;;;;18.45;8.13;;;;;;;10.66;100.00;101779.00;5106516;28;20033;-68
2022/05/22 04:36:10;;;;;;;24.17;8.15;;;;;;;10.71;100.00;101787.06;5102747;28;20107;-68
2022/05/22 04:38:35;;;;;;;21.80;9.43;;;;;;;10.75;100.00;101783.69;5108387;28;20053;-68
2022/05/22 04:41:03;;;;;;;23.30;8.10;;;;;;;10.72;100.00;101783.59;5108803;28;20387;-68
2022/05/22 04:43:30;;;;;;;18.33;7.75;;;;;;;10.75;100.00;101787.19;5094973;28;20038;-69
2022/05/22 04:45:57;;;;;;;18.42;7.90;;;;;;;10.77;100.00;101775.00;5091277;28;20027;-69
2022/05/22 04:48:25;;;;;;;22.85;8.70;;;;;;;10.80;100.00;101777.72;5105917;28;20047;-69
2022/05/22 04:50:53;;;;;;;23.98;9.23;;;;;;;10.89;100.00;101771.84;5095458;28;20032;-69
2022/05/22 04:53:21;;;;;;;21.23;7.88;;;;;;;10.97;100.00;101774.69;5089549;28;20037;-68
2022/05/22 04:55:46;;;;;;;20.40;6.22;;;;;;;11.05;100.00;101772.28;5092454;28;20119;-68
2022/05/22 04:58:12;;;;;;;29.65;8.30;;;;;;;11.08;100.00;101772.38;5091087;28;20444;-68
2022/05/22 05:00:38;;;;;;;15.20;7.53;;;;;;;11.17;100.00;101774.41;5095929;28;20384;-69
2022/05/22 05:03:03;;;;;;;15.27;7.00;;;;;;;11.24;100.00;101771.09;5078772;28;20357;-69
2022/05/22 05:05:29;;;;;;;18.10;6.18;;;;;;;11.31;100.00;101773.03;5096024;28;20384;-68
2022/05/22 05:07:54;;;;;;;14.50;5.55;;;;;;;11.36;100.00;101773.19;5094248;28;20089;-68
2022/05/22 05:10:20;;;;;;;22.88;6.30;;;;;;;11.38;100.00;101764.47;5088818;28;20024;-68
2022/05/22 05:12:46;;;;;;;16.90;5.25;;;;;;;11.41;100.00;101767.19;5089543;28;20070;-67
2022/05/22 05:15:14;;;;;;;22.95;6.07;;;;;;;11.45;100.00;101776.97;5088543;28;20536;-67
2022/05/22 05:17:42;;;;;;;19.10;5.70;;;;;;;11.51;100.00;101765.69;5097971;28;20051;-68
2022/05/22 05:20:08;;;;;;;19.42;6.20;;;;;;;11.55;100.00;101769.31;5100313;28;20103;-68
2022/05/22 05:22:34;;;;;;;14.52;5.70;;;;;;;11.61;100.00;101777.38;5090372;28;20051;-68
2022/05/22 05:24:59;;;;;;;17.77;6.10;;;;;;;11.63;100.00;101779.22;5091376;28;20023;-68
2022/05/22 05:27:24;;;;;;;17.95;6.55;;;;;;;11.69;100.00;101783.75;5094031;28;20518;-68
2022/05/22 05:29:50;;;;;;;13.60;5.70;;;;;;;11.72;100.00;101782.94;5098491;28;20066;-67
2022/05/22 05:32:22;;;;;;;17.50;5.60;;;;;;;11.76;100.00;101793.63;5087537;28;20024;-69
2022/05/22 05:34:54;;;;;;;23.35;6.25;;;;;;;11.81;100.00;101794.66;5087746;28;20031;-68
2022/05/22 05:37:19;;;;;;;16.20;5.65;;;;;;;11.85;100.00;101789.47;5093144;28;20058;-69
2022/05/22 05:39:44;;;;;;;19.70;5.57;;;;;;;11.92;100.00;101784.41;5096325;28;20050;-69
2022/05/22 05:42:10;;;;;;;17.48;5.60;;;;;;;12.01;100.00;101783.75;5086693;28;20468;-68
2022/05/22 05:44:35;;;;;;;15.02;5.70;;;;;;;12.06;100.00;101779.50;5087573;28;20037;-68
2022/05/22 05:47:01;;;;;;;16.15;5.82;;;;;;;12.10;100.00;101785.72;5096701;28;20048;-69
2022/05/22 05:49:27;;;;;;;16.80;5.30;;;;;;;12.20;100.00;101782.47;5089152;28;20028;-68
2022/05/22 05:51:52;;;;;;;12.43;4.97;;;;;;;12.30;100.00;101783.59;5087871;28;20491;-67
2022/05/22 05:54:17;;;;;;;11.82;5.38;;;;;;;12.39;100.00;101775.03;5084540;28;20477;-68
2022/05/22 05:56:43;;;;;;;13.30;5.30;;;;;;;12.44;100.00;101782.19;5093654;28;20043;-69
2022/05/22 05:59:08;;;;;;;17.23;5.22;;;;;;;12.53;100.00;101786.78;5094420;28;20394;-68
2022/05/22 06:01:34;;;;;;;15.20;5.20;;;;;;;12.60;100.00;101790.47;5098906;28;20062;-68
2022/05/22 06:04:01;;;;;;;15.88;5.80;;;;;;;12.70;100.00;101786.31;5090278;28;20043;-68
2022/05/22 06:06:27;;;;;;;13.23;5.28;;;;;;;12.78;100.00;101777.69;5099618;28;20448;-68
2022/05/22 06:08:53;;;;;;;21.73;6.72;;;;;;;12.86;100.00;101769.03;5100201;28;20028;-68
2022/05/22 06:11:19;;;;;;;15.70;5.05;;;;;;;12.95;100.00;101777.16;5097709;27;20468;-69
2022/05/22 06:13:44;;;;;;;14.77;5.93;;;;;;;13.02;100.00;101770.25;5093823;28;20111;-68
2022/05/22 06:16:10;;;;;;;12.00;5.25;;;;;;;13.12;100.00;101765.22;5102709;28;20028;-70
2022/05/22 06:18:36;;;;;;;16.55;5.70;;;;;;;13.19;100.00;101762.72;5106635;28;20487;-70
2022/05/22 06:21:10;;;;;;;13.82;5.55;;;;;;;13.29;100.00;101767.31;5108876;28;20069;-71
2022/05/22 06:23:35;;;;;;;16.63;6.47;;;;;;;13.37;100.00;101763.09;5093335;28;20043;-70
2022/05/22 06:26:00;;;;;;;15.85;5.55;;;;;;;13.44;100.00;101764.09;5103551;28;20378;-70
2022/05/22 06:28:26;;;;;;;16.27;5.68;;;;;;;13.52;100.00;101773.06;5089443;28;20052;-71
2022/05/22 06:30:52;;;;;;;13.75;6.50;;;;;;;13.60;100.00;101778.53;5093047;28;20417;-71
2022/05/22 06:33:17;;;;;;;11.45;4.80;;;;;;;13.71;100.00;101773.44;5086014;28;20106;-71
2022/05/22 06:35:43;;;;;;;17.52;5.78;;;;;;;13.77;100.00;101774.44;5090074;28;20054;-71
2022/05/22 06:39:49;;;;;;;22.70;6.63;;;;;;;13.82;100.00;101780.72;5091655;28;20032;-71
2022/05/22 06:40:58;;;;;;;11.20;5.55;;;;;;;13.96;100.00;101780.06;5086430;28;20539;-71
2022/05/22 06:43:24;;;;;;;11.95;5.75;;;;;;;14.03;100.00;101776.66;5101592;28;20032;-71
2022/05/22 06:45:50;;;;;;;12.40;5.43;;;;;;;14.10;100.00;101781.19;5098349;28;20031;-68
2022/05/22 06:48:16;;;;;;;18.30;6.22;;;;;;;14.19;100.00;101766.31;5082955;28;20049;-68
2022/05/22 06:50:42;;;;;;;19.70;5.43;;;;;;;14.30;100.00;101775.34;5086410;28;20380;-68
2022/05/22 06:53:07;;;;;;;15.82;5.72;;;;;;;14.37;100.00;101777.22;5085591;28;20027;-68
2022/05/22 06:55:32;;;;;;;10.82;5.22;;;;;;;14.41;100.00;101781.69;5082089;28;20488;-67
2022/05/22 06:57:57;;;;;;;15.50;5.35;;;;;;;14.47;100.00;101784.44;5085315;28;20163;-68
2022/05/22 07:00:23;;;;;;;13.13;4.85;;;;;;;14.48;100.00;101775.63;5084420;28;20469;-69
2022/05/22 07:02:52;;;;;;;14.95;5.07;;;;;;;14.56;100.00;101790.75;5088357;28;20025;-67
2022/05/22 07:05:17;;;;;;;14.95;4.80;;;;;;;14.54;100.00;101781.88;5086753;28;20466;-67
2022/05/22 07:07:42;;;;;;;10.60;4.43;;;;;;;14.60;100.00;101785.50;5087444;28;20024;-68
2022/05/22 07:10:08;;;;;;;15.98;4.85;;;;;;;14.68;100.00;101785.69;5083838;28;20036;-67
2022/05/22 07:12:34;;;;;;;15.65;4.43;;;;;;;14.77;100.00;101772.56;5088484;28;20035;-67
2022/05/22 07:14:59;;;;;;;13.65;4.20;;;;;;;14.81;100.00;101763.78;5093682;28;20032;-68
2022/05/22 07:17:24;;;;;;;12.05;4.30;;;;;;;14.90;100.00;101759.47;5088355;28;20488;-67
2022/05/22 07:19:54;;;;;;;13.23;4.50;;;;;;;14.96;100.00;101757.81;5084909;28;20028;-67
2022/05/22 07:22:20;;;;;;;19.05;4.95;;;;;;;15.03;100.00;101766.72;5085508;28;20032;-67
2022/05/22 07:24:45;;;;;;;10.38;4.22;;;;;;;15.06;100.00;101757.94;5084771;28;20345;-67
2022/05/22 07:27:11;;;;;;;10.77;3.95;;;;;;;15.15;100.00;101764.22;5084818;28;20036;-68
2022/05/22 07:29:36;;;;;;;13.00;4.57;;;;;;;15.25;100.00;101767.00;5087198;28;20062;-68
2022/05/22 07:32:04;;;;;;;12.18;4.35;;;;;;;15.30;100.00;101767.91;5083678;28;20036;-68
2022/05/22 07:34:31;;;;;;;11.25;4.25;;;;;;;15.38;100.00;101762.72;5086407;28;20016;-67
2022/05/22 07:36:58;;;;;;;14.15;5.00;;;;;;;15.48;100.00;101756.66;5068987;28;20408;-69
2022/05/22 07:39:24;;;;;;;12.75;4.35;;;;;;;15.54;100.00;101766.44;5083515;28;20028;-68
2022/05/22 07:41:49;;;;;;;11.15;3.60;;;;;;;15.58;100.00;101757.63;5085652;28;20039;-69
2022/05/22 07:44:15;;;;;;;13.50;4.45;;;;;;;15.68;100.00;101759.50;5083236;28;20089;-70
2022/05/22 07:46:40;;;;;;;12.38;4.70;;;;;;;15.80;100.00;101751.72;5087030;28;20123;-70
2022/05/22 07:49:06;;;;;;;14.70;4.40;;;;;;;15.81;100.00;101753.47;5089177;28;20121;-68
2022/05/22 07:51:31;;;;;;;11.95;3.60;;;;;;;15.87;100.00;101747.34;5088504;28;20051;-68
2022/05/22 07:53:56;;;;;;;11.27;3.67;;;;;;;15.90;100.00;101743.81;5085353;28;20073;-69
2022/05/22 07:56:22;;;;;;;18.50;4.97;;;;;;;16.01;100.00;101742.16;5093203;28;20024;-70
2022/05/22 07:58:50;;;;;;;11.48;4.55;;;;;;;16.13;100.00;101741.38;5092648;28;20422;-69
2022/05/22 08:01:16;;;;;;;17.27;4.70;;;;;;;16.29;100.00;101745.00;5085363;28;20051;-70
2022/05/22 08:03:41;;;;;;;14.27;5.03;;;;;;;16.37;100.00;101743.31;5088275;28;20056;-68
2022/05/22 08:06:06;;;;;;;11.90;4.70;;;;;;;16.30;99.72;101739.72;5082280;28;20035;-68
2022/05/22 08:08:32;;;;;;;14.57;5.45;;;;;;;16.30;99.92;101730.88;5090521;28;20069;-68
2022/05/22 08:10:59;;;;;;;8.48;4.00;;;;;;;16.44;99.10;101725.63;5084936;28;20016;-69
2022/05/22 08:13:24;;;;;;;10.27;2.85;;;;;;;16.56;99.42;101717.72;5089075;28;20028;-70
2022/05/22 08:15:49;;;;;;;7.55;2.13;;;;;;;16.65;92.08;101719.56;5086953;28;20020;-69
2022/05/22 08:18:15;;;;;;;7.93;2.70;;;;;;;16.75;91.23;101708.09;5084512;28;20023;-69
2022/05/22 08:20:43;;;;;;;8.93;3.30;;;;;;;16.82;88.47;101711.66;5084594;28;20019;-68
2022/05/22 08:23:21;;;;;;;11.15;4.30;;;;;;;16.90;92.24;101709.09;5087460;28;20048;-69
2022/05/22 08:25:48;;;;;;;15.70;4.22;;;;;;;16.98;91.52;101707.34;5090163;28;20023;-68
2022/05/22 08:28:14;;;;;;;13.13;4.65;;;;;;;17.01;92.21;101707.34;5092195;28;20115;-69
2022/05/22 08:30:41;;;;;;;11.23;4.60;;;;;;;17.12;95.30;101710.94;5087985;28;20020;-69
2022/05/22 08:33:07;;;;;;;8.48;3.90;;;;;;;17.22;96.08;101698.56;5082228;28;20028;-69
2022/05/22 08:35:36;;;;;;;14.05;4.80;;;;;;;17.27;93.68;101699.47;5097798;28;20031;-70
2022/05/22 08:38:01;;;;;;;11.23;4.60;;;;;;;17.24;93.49;101698.56;5085049;28;20081;-69
2022/05/22 08:40:40;;;;;;;9.63;3.50;;;;;;;17.40;95.89;101697.72;5087806;28;20028;-69
2022/05/22 08:43:23;;;;;;;10.35;3.03;;;;;;;17.53;89.03;101691.53;5090435;28;20032;-69
2022/05/22 08:46:41;;;;;;;6.78;1.65;;;;;;;17.68;79.68;101687.13;5089505;28;20063;-69
2022/05/22 08:49:34;;;;;;;7.28;2.40;;;;;;;17.92;80.24;101677.38;5071164;28;20075;-69
2022/05/22 08:52:13;;;;;;;7.47;2.17;;;;;;;18.14;77.88;101680.94;5078105;28;20036;-69
2022/05/22 08:54:42;;;;;;;5.40;2.00;;;;;;;18.15;69.82;101667.59;5093806;28;20028;-69
2022/05/22 09:00:12;;;;;;;8.80;2.05;;;;;;;18.13;66.48;101673.81;5092090;28;20042;-70
2022/05/22 09:02:52;;;;;;;6.13;1.85;;;;;;;18.09;69.57;101675.59;5091815;28;20032;-67
2022/05/22 09:05:23;;;;;;;6.95;2.10;;;;;;;18.01;66.89;101682.69;5092036;28;20031;-68
2022/05/22 09:07:59;;;;;;;5.90;2.40;;;;;;;18.03;70.07;101680.94;5106800;28;20107;-72
2022/05/22 09:10:44;;;;;;;9.85;1.90;;;;;;;18.13;68.79;101666.69;5090733;28;20024;-72
2022/05/22 09:13:25;;;;;;;5.30;2.00;;;;;;;18.29;67.89;101664.03;5087613;28;20024;-70
2022/05/22 09:16:13;;;;;;;8.68;2.30;;;;;;;18.39;71.20;101668.41;5091668;28;20399;-71
2022/05/22 09:19:01;;;;;;;6.75;1.63;;;;;;;18.44;66.03;101660.44;5091453;28;20020;-70
2022/05/22 09:21:47;;;;;;;5.57;1.63;;;;;;;18.64;70.40;101663.03;5091504;28;20067;-70
2022/05/22 09:24:50;;;;;;;8.93;2.13;;;;;;;18.80;69.91;101656.75;5091271;28;20398;-70
2022/05/22 09:28:00;;;;;;;9.60;2.15;;;;;;;18.81;70.16;101655.81;5100754;28;20028;-70
2022/05/22 09:30:35;;;;;;;8.43;1.83;;;;;;;18.93;63.27;101644.25;5096980;28;20035;-71
2022/05/22 09:33:14;;;;;;;10.00;1.92;;;;;;;19.00;69.23;101646.00;5081029;28;20031;-71
2022/05/22 09:35:45;;;;;;;6.28;2.08;;;;;;;18.95;67.12;101645.16;5093366;28;20089;-70
2022/05/22 09:38:46;;;;;;;4.07;1.67;;;;;;;19.00;62.53;101639.78;5092131;28;20078;-70
2022/05/22 09:41:23;;;;;;;4.82;1.50;;;;;;;18.87;59.29;101629.13;5069991;28;20079;-70
2022/05/22 09:44:07;;;;;;;8.68;1.77;;;;;;;18.91;61.04;101634.47;5091337;28;20067;-70
2022/05/22 09:47:00;;;;;;;7.15;1.60;;;;;;;19.10;66.87;101641.50;5094019;28;20111;-70
2022/05/22 09:49:54;;;;;;;9.98;2.63;;;;;;;19.30;71.09;101636.03;5096031;28;20036;-70
2022/05/22 09:52:29;;;;;;;6.90;2.13;;;;;;;19.44;68.14;101640.38;5095919;28;20032;-70
2022/05/22 09:55:14;;;;;;;7.28;1.88;;;;;;;19.54;63.56;101631.41;5097095;28;20028;-70
2022/05/22 09:58:03;;;;;;;4.63;1.63;;;;;;;19.60;61.99;101643.81;5096785;28;20055;-70
2022/05/22 10:00:38;;;;;;;6.53;2.30;;;;;;;19.37;58.38;101626.19;5090135;28;20020;-70
2022/05/22 10:03:26;;;;;;;9.75;1.75;;;;;;;19.38;62.43;101634.19;5111275;28;20114;-71
2022/05/22 10:06:33;;;;;;;6.53;1.67;;;;;;;19.50;63.29;101638.53;5096751;28;20399;-71
2022/05/22 10:09:15;;;;;;;8.77;1.85;;;;;;;19.61;64.49;101627.78;5097391;28;20028;-71
2022/05/22 10:12:19;;;;;;;4.88;1.73;;;;;;;19.85;63.34;101626.69;5096968;28;20027;-72
2022/05/22 10:15:06;;;;;;;6.22;1.80;;;;;;;20.03;61.02;101624.75;5090591;28;20483;-71
2022/05/22 10:17:40;;;;;;;10.07;1.80;;;;;;;20.07;58.09;101612.25;5093710;28;20024;-71
2022/05/22 10:20:24;;;;;;;5.00;1.55;;;;;;;20.07;56.09;101610.47;5090511;28;20028;-71
2022/05/22 10:23:03;;;;;;;4.80;1.35;;;;;;;20.11;55.50;101606.84;5089329;28;20028;-71
2022/05/22 10:25:50;;;;;;;3.67;1.48;;;;;;;20.15;56.58;101602.38;5090530;28;20483;-73
2022/05/22 10:28:19;;;;;;;7.90;2.50;;;;;;;20.27;65.32;101612.03;5096430;28;20046;-72
2022/05/22 10:30:50;;;;;;;6.63;1.80;;;;;;;20.58;62.30;101614.31;5089889;28;20036;-72
2022/05/22 10:33:20;;;;;;;6.15;2.15;;;;;;;20.65;61.23;101608.88;5091957;28;20146;-72
2022/05/22 10:36:15;;;;;;;7.85;2.22;;;;;;;20.72;62.47;101599.03;5093614;28;20073;-72
2022/05/22 10:38:44;;;;;;;8.05;2.00;;;;;;;20.89;62.49;101602.34;5086633;28;20059;-70
2022/05/22 10:44:09;;;;;;;5.90;1.75;;;;;;;21.29;59.45;101586.59;5086135;28;20035;-71
2022/05/22 10:46:56;;;;;;;6.95;2.75;;;;;;;21.45;59.20;101576.53;5086864;28;20024;-71
2022/05/22 10:49:25;;;;;;;7.22;2.13;;;;;;;21.60;60.17;101578.09;5096446;28;20027;-71
2022/05/22 10:51:57;;;;;;;6.38;2.08;;;;;;;21.53;54.25;101561.22;5099959;28;20020;-70
2022/05/22 10:54:30;;;;;;;5.35;2.00;;;;;;;21.52;53.49;101565.66;5085949;28;20407;-72
2022/05/22 10:57:07;;;;;;;6.25;2.38;;;;;;;21.47;51.61;101547.91;5107142;28;20388;-72
2022/05/22 10:59:32;;;;;;;10.02;2.17;;;;;;;21.64;54.65;101558.38;5090754;28;20413;-70
2022/05/22 11:02:00;;;;;;;6.32;2.30;;;;;;;21.73;62.37;101569.78;5086944;28;20097;-71
2022/05/22 11:04:38;;;;;;;6.22;2.03;;;;;;;21.90;52.10;101556.06;5085352;28;20031;-71
2022/05/22 11:07:05;;;;;;;8.05;2.30;;;;;;;21.59;52.88;101546.84;5086418;28;20419;-71
2022/05/22 11:09:34;;;;;;;8.52;2.72;;;;;;;21.67;60.94;101561.84;5090847;28;20125;-71
2022/05/22 11:12:15;;;;;;;6.95;3.22;;;;;;;21.88;63.11;101565.03;5095054;28;20464;-71
2022/05/22 11:14:41;;;;;;;7.95;2.60;;;;;;;22.21;57.38;101558.13;5092926;28;20494;-70
2022/05/22 11:17:17;;;;;;;7.50;2.00;;;;;;;22.33;50.02;101542.72;5091528;28;20111;-70
2022/05/22 11:19:48;;;;;;;9.77;2.70;;;;;;;22.29;53.76;101541.91;5090967;28;20027;-70
2022/05/22 11:22:35;;;;;;;10.32;2.97;;;;;;;22.32;52.35;101540.94;5098688;28;20062;-70
2022/05/22 11:25:33;;;;;;;8.90;2.08;;;;;;;22.35;55.05;101546.28;5111984;27;20038;-70
2022/05/22 11:28:07;;;;;;;8.48;2.20;;;;;;;22.39;54.23;101542.59;5093653;28;20027;-71
2022/05/22 11:31:01;;;;;;;8.32;2.58;;;;;;;22.69;53.34;101550.88;5092142;28;20030;-71
2022/05/22 11:33:38;;;;;;;7.82;2.47;;;;;;;22.96;53.86;101543.13;5097597;28;20030;-71
2022/05/22 11:36:22;;;;;;;9.05;2.80;;;;;;;23.16;50.85;101524.75;5106142;28;20038;-70
2022/05/22 11:39:11;;;;;;;4.65;1.58;;;;;;;23.71;51.45;101521.50;5087625;28;20360;-69
2022/05/22 11:41:50;;;;;;;6.97;2.47;;;;;;;23.78;47.78;101520.44;5093361;28;20032;-70